Time;durP1;ratioP1;P1;durP2;ratioP2;P2;SDS_P1;SDS_P2;PMS_P1;PMS_P2;Temp;Humidity;BMP_temperature;BMP_pressure;BME280_temperature;BME280_humidity;BME280_pressure;Samples;Min_cycle;Max_cycle;Signal;HPM_P1;HPM_P2
2022/04/21 00:00:33;;;;;;;14.00;5.82;;;7.80;99.90;;;;;;5024946;28;20123;-72
2022/04/21 00:02:59;;;;;;;9.60;5.75;;;7.80;99.90;;;;;;5023591;28;20048;-72
2022/04/21 00:05:25;;;;;;;11.30;5.97;;;7.80;99.90;;;;;;5027258;28;20103;-72
2022/04/21 00:07:52;;;;;;;9.73;5.80;;;7.80;99.90;;;;;;5029105;28;20044;-72
2022/04/21 00:10:19;;;;;;;12.80;6.50;;;7.70;99.90;;;;;;5030217;28;20292;-72
2022/04/21 00:12:45;;;;;;;11.93;6.13;;;7.60;99.90;;;;;;5010773;28;20044;-72
2022/04/21 00:15:11;;;;;;;11.63;5.75;;;7.60;99.90;;;;;;5010086;28;20050;-72
2022/04/21 00:17:38;;;;;;;11.45;6.05;;;7.60;99.90;;;;;;5028784;28;20507;-72
2022/04/21 00:20:05;;;;;;;12.27;5.93;;;7.50;99.90;;;;;;5008342;28;20518;-72
2022/04/21 00:25:15;;;;;;;9.25;6.15;;;7.50;99.90;;;;;;5028368;28;20412;-72
2022/04/21 00:27:43;;;;;;;10.30;5.65;;;7.50;99.90;;;;;;5020849;28;20070;-72
2022/04/21 00:30:11;;;;;;;11.98;6.38;;;7.50;99.90;;;;;;5004155;28;20052;-72
2022/04/21 00:32:38;;;;;;;13.65;5.88;;;7.50;99.90;;;;;;5024993;28;20056;-72
2022/04/21 00:35:06;;;;;;;10.35;5.63;;;7.50;99.90;;;;;;5008723;28;20112;-72
2022/04/21 00:37:33;;;;;;;13.20;5.45;;;7.50;99.90;;;;;;5008685;28;20052;-72
2022/04/21 00:39:59;;;;;;;9.80;5.53;;;7.60;99.90;;;;;;5012079;28;20057;-72
2022/04/21 00:42:25;;;;;;;12.38;5.95;;;7.50;99.90;;;;;;5027727;28;20552;-72
2022/04/21 00:44:51;;;;;;;12.30;5.75;;;7.50;99.90;;;;;;5004256;28;20060;-72
2022/04/21 00:47:18;;;;;;;11.75;5.82;;;7.40;99.90;;;;;;4988168;28;20045;-73
2022/04/21 00:49:48;;;;;;;10.77;5.70;;;7.40;99.90;;;;;;5013214;28;20515;-73
2022/04/21 00:52:15;;;;;;;10.80;6.05;;;7.50;99.90;;;;;;4992634;28;20061;-73
2022/04/21 00:54:42;;;;;;;10.32;5.70;;;7.50;99.90;;;;;;5022963;28;21122;-73
2022/04/21 00:57:09;;;;;;;10.15;5.97;;;7.40;99.90;;;;;;5010790;28;20098;-73
2022/04/21 00:59:35;;;;;;;8.95;5.68;;;7.30;99.90;;;;;;5020342;28;20041;-73
2022/04/21 01:04:48;;;;;;;9.95;5.22;;;7.20;99.90;;;;;;5023335;28;20049;-73
2022/04/21 01:07:14;;;;;;;12.38;5.85;;;7.20;99.90;;;;;;5007907;28;20048;-73
2022/04/21 01:09:41;;;;;;;9.90;5.60;;;7.20;99.90;;;;;;5022013;28;20048;-73
2022/04/21 01:12:11;;;;;;;11.20;6.05;;;7.10;99.90;;;;;;5024987;28;20944;-73
2022/04/21 01:14:38;;;;;;;12.23;5.80;;;7.10;99.90;;;;;;5003499;28;20052;-73
2022/04/21 01:17:09;;;;;;;10.57;5.40;;;7.10;99.90;;;;;;5009521;28;20863;-73
2022/04/21 01:19:35;;;;;;;11.85;5.78;;;7.10;99.90;;;;;;5003399;28;20060;-73
2022/04/21 01:22:01;;;;;;;11.27;5.68;;;7.10;99.90;;;;;;5009338;28;20054;-73
2022/04/21 01:24:27;;;;;;;9.18;5.18;;;7.10;99.90;;;;;;5017889;28;20045;-72
2022/04/21 01:27:00;;;;;;;9.93;5.45;;;7.10;99.90;;;;;;5028692;28;20052;-73
2022/04/21 01:29:27;;;;;;;12.68;6.50;;;7.10;99.90;;;;;;5011246;28;20052;-73
2022/04/21 01:31:54;;;;;;;9.35;5.68;;;7.10;99.90;;;;;;5021917;28;20502;-73
2022/04/21 01:34:21;;;;;;;10.38;5.93;;;7.00;99.90;;;;;;5027196;28;20045;-73
2022/04/21 01:42:16;;;;;;;13.10;6.82;;;6.60;99.90;;;;;;5025579;28;20064;-73
2022/04/21 01:44:43;;;;;;;13.30;6.10;;;6.50;99.90;;;;;;5013441;28;20785;-73
2022/04/21 01:47:09;;;;;;;10.80;6.05;;;6.40;99.90;;;;;;5028428;28;20096;-73
2022/04/21 01:49:35;;;;;;;11.00;6.05;;;6.50;99.90;;;;;;5025571;28;20103;-73
2022/04/21 01:52:01;;;;;;;9.48;5.70;;;6.50;99.90;;;;;;5022926;28;20046;-73
2022/04/21 01:54:27;;;;;;;12.68;7.20;;;6.40;99.90;;;;;;5013936;28;20514;-73
2022/04/21 01:56:53;;;;;;;12.25;6.38;;;6.70;99.90;;;;;;5025212;28;20079;-73
2022/04/21 01:59:18;;;;;;;11.40;7.25;;;6.60;99.90;;;;;;5028004;28;21120;-73
2022/04/21 02:01:44;;;;;;;12.05;6.55;;;6.80;99.90;;;;;;5030355;28;20671;-73
2022/04/21 02:04:10;;;;;;;13.18;8.05;;;6.90;99.90;;;;;;5030093;28;20049;-73
2022/04/21 02:06:36;;;;;;;11.98;7.63;;;6.90;99.90;;;;;;5025444;28;20041;-73
2022/04/21 02:09:02;;;;;;;12.32;8.10;;;6.90;99.90;;;;;;5011133;28;20040;-73
2022/04/21 02:11:28;;;;;;;13.80;7.57;;;6.90;99.90;;;;;;5011548;28;20045;-73
2022/04/21 02:13:54;;;;;;;16.33;7.40;;;6.90;99.90;;;;;;5007489;28;21224;-73
2022/04/21 02:16:20;;;;;;;11.50;6.97;;;6.80;99.90;;;;;;5028773;28;20129;-73
2022/04/21 02:18:47;;;;;;;12.63;7.20;;;6.80;99.90;;;;;;5031344;28;20053;-73
2022/04/21 02:21:13;;;;;;;13.35;7.72;;;6.80;99.90;;;;;;5010014;28;20040;-72
2022/04/21 02:23:39;;;;;;;25.02;8.80;;;6.80;99.90;;;;;;4988896;28;20060;-73
2022/04/21 02:26:04;;;;;;;19.25;7.40;;;6.70;99.90;;;;;;5011059;28;20126;-73
2022/04/21 02:28:30;;;;;;;18.02;7.10;;;6.60;99.90;;;;;;5028622;28;21244;-73
2022/04/21 02:30:56;;;;;;;12.98;7.75;;;6.60;99.90;;;;;;5033730;28;20040;-73
2022/04/21 02:33:22;;;;;;;11.85;7.03;;;6.60;99.90;;;;;;5027666;28;20074;-73
2022/04/21 02:35:48;;;;;;;13.50;7.45;;;6.60;99.90;;;;;;5028061;28;20406;-73
2022/04/21 02:38:14;;;;;;;11.68;7.35;;;6.70;99.90;;;;;;5010015;28;20109;-73
2022/04/21 02:40:40;;;;;;;11.27;7.60;;;6.90;99.90;;;;;;5010987;28;20447;-73
2022/04/21 02:43:07;;;;;;;14.23;8.40;;;6.80;99.90;;;;;;5010891;28;20045;-73
2022/04/21 02:45:35;;;;;;;10.98;7.10;;;6.70;99.90;;;;;;5008301;28;20080;-73
2022/04/21 02:48:01;;;;;;;11.43;7.65;;;6.70;99.90;;;;;;5025377;28;20056;-73
2022/04/21 02:50:27;;;;;;;13.85;8.43;;;6.70;99.90;;;;;;5010219;28;20106;-73
2022/04/21 02:52:57;;;;;;;11.95;7.65;;;6.90;99.90;;;;;;5023716;28;20100;-73
2022/04/21 02:58:07;;;;;;;13.50;8.57;;;6.90;99.90;;;;;;5027269;28;20045;-73
2022/04/21 03:00:33;;;;;;;12.73;8.50;;;6.90;99.90;;;;;;5010800;28;20052;-73
2022/04/21 03:02:59;;;;;;;13.43;8.73;;;7.10;99.90;;;;;;5029457;28;20052;-73
2022/04/21 03:05:25;;;;;;;12.25;8.30;;;7.00;99.90;;;;;;5027516;28;20048;-73
2022/04/21 03:07:51;;;;;;;13.02;8.77;;;6.90;99.90;;;;;;5005403;28;20333;-73
2022/04/21 03:10:16;;;;;;;13.77;7.93;;;7.00;99.90;;;;;;5009384;28;20640;-73
2022/04/21 03:12:42;;;;;;;13.38;8.30;;;7.00;99.90;;;;;;5006289;28;21007;-73
2022/04/21 03:15:11;;;;;;;13.35;8.32;;;7.00;99.90;;;;;;5007445;28;20381;-73
2022/04/21 03:17:37;;;;;;;14.45;9.27;;;7.00;99.90;;;;;;5020371;28;20105;-73
2022/04/21 03:20:03;;;;;;;12.82;8.35;;;6.90;99.90;;;;;;5028624;28;20139;-73
2022/04/21 03:25:34;;;;;;;14.65;9.30;;;6.80;99.90;;;;;;5024575;28;20048;-73
2022/04/21 03:28:01;;;;;;;14.27;8.50;;;6.90;99.90;;;;;;5010234;28;20866;-73
2022/04/21 03:30:34;;;;;;;15.27;9.82;;;6.80;99.90;;;;;;5008718;28;20056;-73
2022/04/21 03:33:00;;;;;;;14.15;8.10;;;6.70;99.90;;;;;;5009019;28;20118;-73
2022/04/21 03:35:25;;;;;;;13.10;8.35;;;6.70;99.90;;;;;;5027810;28;20048;-73
2022/04/21 03:37:51;;;;;;;13.25;8.23;;;6.80;99.90;;;;;;5011064;28;20063;-73
2022/04/21 03:40:17;;;;;;;12.95;8.32;;;6.70;99.90;;;;;;5030949;28;20099;-73
2022/04/21 03:42:43;;;;;;;13.27;9.10;;;6.60;99.90;;;;;;5027815;28;20102;-73
2022/04/21 03:45:09;;;;;;;13.77;8.90;;;6.70;99.90;;;;;;5033683;28;20036;-73
2022/04/21 03:47:35;;;;;;;15.23;8.68;;;6.60;99.90;;;;;;5030500;28;20660;-73
2022/04/21 03:50:01;;;;;;;13.23;8.70;;;6.60;99.90;;;;;;5031893;28;20053;-73
2022/04/21 03:52:26;;;;;;;16.35;8.70;;;6.60;99.90;;;;;;5011998;28;20110;-73
2022/04/21 03:54:52;;;;;;;15.05;9.65;;;6.50;99.90;;;;;;5031857;28;20403;-72
2022/04/21 03:57:18;;;;;;;14.23;9.02;;;6.60;99.90;;;;;;5029585;28;20048;-73
2022/04/21 03:59:44;;;;;;;15.05;9.18;;;6.60;99.90;;;;;;5033286;28;20106;-73
2022/04/21 04:02:10;;;;;;;14.18;8.38;;;6.50;99.90;;;;;;5027315;28;20036;-73
2022/04/21 04:04:37;;;;;;;13.75;9.25;;;6.50;99.90;;;;;;5008596;28;20894;-72
2022/04/21 04:12:34;;;;;;;14.30;9.20;;;6.50;99.90;;;;;;5034697;28;20202;-73
2022/04/21 04:15:01;;;;;;;14.98;9.57;;;6.50;99.90;;;;;;5031137;28;20101;-73
2022/04/21 04:17:27;;;;;;;15.40;9.73;;;6.40;99.90;;;;;;5013988;28;20052;-73
2022/04/21 04:19:53;;;;;;;14.90;9.65;;;6.40;99.90;;;;;;5033838;28;20683;-73
2022/04/21 04:22:19;;;;;;;13.85;9.40;;;6.30;99.90;;;;;;5028705;28;20439;-73
2022/04/21 04:24:45;;;;;;;14.15;9.40;;;6.30;99.90;;;;;;5011685;28;20044;-73
2022/04/21 04:27:11;;;;;;;14.82;9.82;;;6.40;99.90;;;;;;5028303;28;20076;-73
2022/04/21 04:29:37;;;;;;;16.70;10.38;;;6.20;99.90;;;;;;5029517;28;20131;-73
2022/04/21 04:32:03;;;;;;;25.80;9.52;;;6.20;99.90;;;;;;5009360;28;20118;-73
2022/04/21 04:34:29;;;;;;;17.08;10.50;;;6.10;99.90;;;;;;5028917;28;20052;-73
2022/04/21 04:36:55;;;;;;;20.00;10.50;;;6.10;99.90;;;;;;5033600;28;20041;-73
2022/04/21 04:39:21;;;;;;;24.40;9.48;;;6.20;99.90;;;;;;5027397;28;20048;-73
2022/04/21 04:44:34;;;;;;;23.38;9.00;;;6.20;99.90;;;;;;5012177;28;20592;-73
2022/04/21 04:47:00;;;;;;;18.67;9.00;;;6.30;99.90;;;;;;4998366;28;20298;-73
2022/04/21 04:49:27;;;;;;;18.55;8.98;;;6.30;99.90;;;;;;5014136;28;20041;-73
2022/04/21 04:51:53;;;;;;;19.35;10.07;;;6.40;99.90;;;;;;5012272;28;20358;-73
2022/04/21 04:54:19;;;;;;;23.70;9.75;;;6.60;99.90;;;;;;4996202;28;20485;-73
2022/04/21 04:56:46;;;;;;;15.65;8.70;;;6.60;99.90;;;;;;5011685;28;20037;-73
2022/04/21 04:59:12;;;;;;;19.60;9.98;;;6.80;99.90;;;;;;5011439;28;20049;-73
2022/04/21 05:01:43;;;;;;;18.42;9.63;;;7.20;99.90;;;;;;5014198;28;20123;-73
2022/04/21 05:08:12;;;;;;;16.38;8.98;;;8.70;99.90;;;;;;5035679;28;20040;-73
2022/04/21 05:10:38;;;;;;;14.10;9.02;;;9.20;99.90;;;;;;5013090;28;20056;-73
2022/04/21 05:13:04;;;;;;;23.10;9.60;;;9.30;99.90;;;;;;5014109;28;20280;-73
2022/04/21 05:15:31;;;;;;;14.90;9.23;;;10.00;99.90;;;;;;5024506;28;20378;-74
2022/04/21 05:17:57;;;;;;;34.83;10.32;;;10.20;99.90;;;;;;5034038;28;20047;-73
2022/04/21 05:20:23;;;;;;;15.63;8.73;;;10.70;99.90;;;;;;5011581;28;20052;-73
2022/04/21 05:22:51;;;;;;;18.20;8.88;;;10.50;99.90;;;;;;5030085;28;20510;-73
2022/04/21 05:25:17;;;;;;;12.65;8.52;;;10.50;99.90;;;;;;5027072;28;20060;-73
2022/04/21 05:27:43;;;;;;;12.60;8.48;;;10.50;99.90;;;;;;5031835;28;20564;-73
2022/04/21 05:32:57;;;;;;;13.82;8.70;;;10.70;99.90;;;;;;5017951;28;20075;-73
2022/04/21 05:35:23;;;;;;;12.07;8.23;;;10.90;99.90;;;;;;5032011;28;20069;-73
2022/04/21 05:37:49;;;;;;;13.05;8.52;;;10.70;99.90;;;;;;5013457;28;20423;-73
2022/04/21 05:40:16;;;;;;;17.65;8.65;;;11.00;99.90;;;;;;5010673;28;20053;-73
2022/04/21 05:42:48;;;;;;;10.75;8.13;;;11.20;99.90;;;;;;5026738;28;20056;-73
2022/04/21 05:45:15;;;;;;;14.88;8.25;;;11.70;99.90;;;;;;5012770;28;20869;-73
2022/04/21 05:47:41;;;;;;;11.45;7.60;;;11.40;99.90;;;;;;5027517;28;20899;-73
2022/04/21 05:50:08;;;;;;;11.82;7.70;;;10.20;99.90;;;;;;5031692;28;20057;-73
2022/04/21 05:52:37;;;;;;;13.80;7.72;;;9.50;99.90;;;;;;4991734;28;20099;-73
2022/04/21 05:55:03;;;;;;;12.73;8.10;;;9.40;99.90;;;;;;5008265;28;20484;-73
2022/04/21 05:57:29;;;;;;;10.90;7.80;;;9.60;99.90;;;;;;5011690;28;20416;-73
2022/04/21 05:59:55;;;;;;;13.77;8.68;;;9.50;99.90;;;;;;5011965;28;20040;-73
2022/04/21 06:02:21;;;;;;;20.95;8.90;;;9.70;99.90;;;;;;5009755;28;20053;-73
2022/04/21 06:04:47;;;;;;;17.15;7.68;;;10.00;99.90;;;;;;5013533;28;20044;-73
2022/04/21 06:07:14;;;;;;;16.40;8.20;;;10.00;99.90;;;;;;5030003;28;20053;-73
2022/04/21 06:09:41;;;;;;;17.15;8.20;;;10.00;99.90;;;;;;5030685;28;20048;-73
2022/04/21 06:12:08;;;;;;;11.98;7.80;;;9.90;99.90;;;;;;5013563;28;20062;-73
2022/04/21 06:14:36;;;;;;;36.33;9.30;;;10.00;99.90;;;;;;5029904;28;20049;-74
2022/04/21 06:17:02;;;;;;;24.90;6.63;;;10.40;99.90;;;;;;5030489;28;20055;-73
2022/04/21 06:19:29;;;;;;;12.88;6.95;;;10.30;99.90;;;;;;5013425;28;20052;-73
2022/04/21 06:21:54;;;;;;;13.48;6.63;;;10.20;99.90;;;;;;5013246;28;20075;-74
2022/04/21 06:24:20;;;;;;;12.82;6.90;;;10.50;99.90;;;;;;5012888;28;20144;-73
2022/04/21 06:26:46;;;;;;;14.55;6.90;;;10.20;99.90;;;;;;5027872;28;20499;-73
2022/04/21 06:29:12;;;;;;;15.52;6.55;;;10.60;99.90;;;;;;5029379;28;20044;-73
2022/04/21 06:31:38;;;;;;;10.50;6.53;;;10.40;99.90;;;;;;5029973;28;20049;-74
2022/04/21 06:34:04;;;;;;;9.93;5.90;;;10.40;99.90;;;;;;5014008;28;20058;-73
2022/04/21 06:36:29;;;;;;;14.10;6.20;;;10.30;99.90;;;;;;5011764;28;20056;-73
2022/04/21 06:38:55;;;;;;;9.43;5.95;;;10.30;99.90;;;;;;5028510;28;20049;-73
2022/04/21 06:41:21;;;;;;;10.63;6.28;;;10.50;99.90;;;;;;5032195;28;20060;-73
2022/04/21 06:49:16;;;;;;;10.48;5.35;;;10.80;99.90;;;;;;5027202;28;20056;-73
2022/04/21 06:51:42;;;;;;;10.98;5.63;;;10.60;99.90;;;;;;5011010;28;20060;-73
2022/04/21 06:54:09;;;;;;;11.32;5.55;;;10.80;99.90;;;;;;5034812;28;20048;-73
2022/04/21 06:56:35;;;;;;;10.98;5.82;;;11.00;99.90;;;;;;5032744;28;20036;-73
2022/04/21 06:59:01;;;;;;;10.93;5.65;;;11.20;99.90;;;;;;5014700;28;20071;-73
2022/04/21 07:01:27;;;;;;;10.63;5.55;;;11.30;99.90;;;;;;5014340;28;20120;-73
2022/04/21 07:03:53;;;;;;;11.10;5.55;;;11.30;99.90;;;;;;5033342;28;20056;-74
2022/04/21 07:06:19;;;;;;;9.25;4.72;;;11.60;99.90;;;;;;5028853;28;20596;-73
2022/04/21 07:08:45;;;;;;;8.25;4.70;;;11.40;99.90;;;;;;5008896;28;20040;-74
2022/04/21 07:11:10;;;;;;;7.93;4.30;;;11.40;99.90;;;;;;5018346;28;20048;-74
2022/04/21 07:13:36;;;;;;;9.30;4.28;;;11.30;99.90;;;;;;5009701;28;20182;-74
2022/04/21 07:16:02;;;;;;;9.25;6.00;;;11.60;99.90;;;;;;5014997;28;20056;-73
2022/04/21 07:18:28;;;;;;;7.57;3.95;;;12.00;99.90;;;;;;5036089;28;20528;-74
2022/04/21 07:20:54;;;;;;;8.98;4.85;;;11.70;99.90;;;;;;5018040;28;20618;-73
2022/04/21 07:23:20;;;;;;;10.00;4.20;;;12.30;99.90;;;;;;5035529;28;20044;-73
2022/04/21 07:25:46;;;;;;;9.52;4.53;;;12.50;99.90;;;;;;5014502;28;21137;-74
2022/04/21 07:28:11;;;;;;;8.38;4.13;;;13.00;99.90;;;;;;5033976;28;20098;-74
2022/04/21 07:30:39;;;;;;;7.35;3.85;;;12.70;99.90;;;;;;5014204;28;20057;-74
2022/04/21 07:33:05;;;;;;;9.25;4.10;;;12.50;99.40;;;;;;5016527;28;20052;-74
2022/04/21 07:35:32;;;;;;;8.70;3.70;;;12.70;99.90;;;;;;5018889;28;20419;-74
2022/04/21 07:38:07;;;;;;;5.93;3.20;;;12.80;99.90;;;;;;5030972;28;20132;-73
2022/04/21 07:40:34;;;;;;;9.63;3.63;;;12.70;93.00;;;;;;5032344;28;20044;-74
2022/04/21 07:43:08;;;;;;;7.43;3.03;;;12.60;97.70;;;;;;5031067;28;20598;-74
2022/04/21 07:45:44;;;;;;;6.70;3.42;;;12.50;91.80;;;;;;5028617;28;20746;-74
2022/04/21 07:48:10;;;;;;;8.10;3.65;;;12.70;96.50;;;;;;5035096;28;20049;-74
2022/04/21 07:50:36;;;;;;;5.85;3.25;;;12.80;86.60;;;;;;5014067;28;20045;-74
2022/04/21 07:53:15;;;;;;;7.88;3.47;;;13.20;84.40;;;;;;5031179;28;20487;-73
2022/04/21 07:55:50;;;;;;;7.22;2.95;;;12.90;96.50;;;;;;5031553;28;20371;-73
2022/04/21 07:58:16;;;;;;;7.45;3.40;;;12.70;80.90;;;;;;5000201;28;20045;-73
2022/04/21 08:00:42;;;;;;;5.80;3.25;;;12.90;90.40;;;;;;5013318;28;20105;-74
2022/04/21 08:03:09;;;;;;;6.93;3.28;;;13.40;99.20;;;;;;5030355;28;20041;-74
2022/04/21 08:05:36;;;;;;;8.60;3.40;;;13.50;90.60;;;;;;5024366;28;20114;-74
2022/04/21 08:08:03;;;;;;;9.18;3.47;;;14.10;91.60;;;;;;5027797;28;20047;-74
2022/04/21 08:10:29;;;;;;;5.80;3.00;;;13.90;91.60;;;;;;5024676;28;20076;-74
2022/04/21 08:12:59;;;;;;;6.18;2.80;;;13.80;75.40;;;;;;5014049;28;20044;-74
2022/04/21 08:15:31;;;;;;;5.05;2.60;;;13.90;77.50;;;;;;5013012;28;20155;-74
2022/04/21 08:18:03;;;;;;;6.85;3.60;;;13.70;77.40;;;;;;5034698;28;20072;-74
2022/04/21 08:20:34;;;;;;;6.93;3.10;;;14.10;94.10;;;;;;5031638;28;20119;-74
2022/04/21 08:23:00;;;;;;;7.68;3.05;;;14.00;75.20;;;;;;5038383;28;20469;-74
2022/04/21 08:33:39;;;;;;;6.15;2.80;;;14.30;74.00;;;;;;5026790;28;21007;-73
2022/04/21 08:36:05;;;;;;;5.72;2.63;;;14.80;77.90;;;;;;5037783;28;20135;-74
2022/04/21 08:38:33;;;;;;;6.28;2.40;;;14.60;72.50;;;;;;5036346;28;20052;-74
2022/04/21 08:41:05;;;;;;;5.40;2.70;;;14.80;72.00;;;;;;5035591;28;20708;-74
2022/04/21 08:43:33;;;;;;;8.32;2.83;;;14.80;71.20;;;;;;5021402;28;20510;-74
2022/04/21 08:46:01;;;;;;;8.05;2.85;;;14.30;67.90;;;;;;5035659;28;20536;-74
2022/04/21 08:48:27;;;;;;;6.97;3.00;;;14.30;71.70;;;;;;5034945;28;20045;-74
2022/04/21 08:50:53;;;;;;;6.88;2.97;;;14.30;71.90;;;;;;5032293;28;20076;-74
2022/04/21 08:53:26;;;;;;;6.88;2.85;;;14.20;72.90;;;;;;5017379;28;20913;-75
2022/04/21 08:55:53;;;;;;;6.22;2.90;;;14.50;73.40;;;;;;5018832;28;20045;-74
2022/04/21 08:58:20;;;;;;;10.50;3.28;;;14.70;73.40;;;;;;5019777;28;20391;-74
2022/04/21 09:00:46;;;;;;;11.35;3.35;;;15.20;74.50;;;;;;5014910;28;20044;-75
2022/04/21 09:03:13;;;;;;;10.73;3.28;;;15.30;73.70;;;;;;5015375;28;20049;-74
2022/04/21 09:05:40;;;;;;;9.65;2.60;;;14.90;70.10;;;;;;5032889;28;20052;-74
2022/04/21 09:08:25;;;;;;;11.48;3.17;;;15.10;70.30;;;;;;5013183;28;20044;-76
2022/04/21 09:11:11;;;;;;;7.07;2.95;;;14.90;68.80;;;;;;5016048;28;20118;-75
2022/04/21 09:13:39;;;;;;;6.45;3.38;;;15.00;69.20;;;;;;5031707;28;20047;-74
2022/04/21 09:16:08;;;;;;;6.63;3.45;;;15.20;69.50;;;;;;5028786;28;20053;-74
2022/04/21 09:18:46;;;;;;;7.50;3.03;;;15.00;69.20;;;;;;5015614;28;20045;-76
2022/04/21 09:21:17;;;;;;;5.60;3.10;;;15.00;66.30;;;;;;5029562;28;20073;-74
2022/04/21 09:23:47;;;;;;;7.30;2.97;;;15.20;70.40;;;;;;5032515;28;20067;-75
2022/04/21 09:26:16;;;;;;;7.05;2.70;;;15.20;64.10;;;;;;5015781;28;20048;-75
2022/04/21 09:28:41;;;;;;;6.40;2.58;;;15.70;68.30;;;;;;5013729;28;20056;-74
2022/04/21 09:31:09;;;;;;;7.00;3.10;;;15.60;67.80;;;;;;5013718;28;20045;-75
2022/04/21 09:33:37;;;;;;;7.78;3.10;;;15.80;68.10;;;;;;4997395;28;20051;-73
2022/04/21 09:36:08;;;;;;;6.53;2.90;;;16.10;66.40;;;;;;5014420;28;20048;-75
2022/04/21 09:38:34;;;;;;;9.30;3.78;;;15.80;66.10;;;;;;4990045;28;20597;-74
2022/04/21 09:41:10;;;;;;;6.45;2.67;;;15.40;66.30;;;;;;5024418;28;20049;-75
2022/04/21 09:43:37;;;;;;;7.80;3.35;;;15.00;64.20;;;;;;5010050;28;20053;-75
2022/04/21 09:46:15;;;;;;;6.22;3.10;;;15.80;70.30;;;;;;5011918;28;20045;-75
2022/04/21 09:48:42;;;;;;;5.70;2.97;;;15.70;65.20;;;;;;4988779;28;20588;-73
2022/04/21 09:51:22;;;;;;;6.38;3.03;;;15.70;65.70;;;;;;5032364;28;20045;-73
2022/04/21 09:53:52;;;;;;;6.15;3.00;;;15.50;67.70;;;;;;5026166;28;20080;-73
2022/04/21 09:56:28;;;;;;;7.15;3.63;;;15.80;68.20;;;;;;5030412;28;20073;-73
2022/04/21 09:58:54;;;;;;;6.57;3.50;;;15.40;65.20;;;;;;5012416;28;20055;-73
2022/04/21 10:01:21;;;;;;;6.15;3.15;;;15.50;69.00;;;;;;5034097;28;20128;-74
2022/04/21 10:03:48;;;;;;;8.85;3.60;;;15.50;64.90;;;;;;5029994;28;20535;-74
2022/04/21 10:06:16;;;;;;;10.27;3.70;;;15.90;67.10;;;;;;5032620;28;20083;-72
2022/04/21 10:08:43;;;;;;;8.00;3.63;;;16.10;68.30;;;;;;5030570;28;20992;-73
2022/04/21 10:11:09;;;;;;;7.65;3.60;;;16.70;72.00;;;;;;5034318;28;20043;-74
2022/04/21 10:13:36;;;;;;;14.07;4.13;;;15.50;66.80;;;;;;5020273;28;20068;-73
2022/04/21 10:16:02;;;;;;;9.27;3.35;;;16.10;71.20;;;;;;5030171;28;20040;-73
2022/04/21 10:18:28;;;;;;;6.53;2.90;;;15.80;66.80;;;;;;5012838;28;20045;-74
2022/04/21 10:20:55;;;;;;;7.82;3.80;;;15.70;61.20;;;;;;5033285;28;20044;-73
2022/04/21 10:23:22;;;;;;;6.57;3.40;;;15.90;64.60;;;;;;5001432;28;20052;-73
2022/04/21 10:26:00;;;;;;;7.55;3.15;;;15.90;63.70;;;;;;5033359;28;20513;-73
2022/04/21 10:28:39;;;;;;;7.68;3.60;;;15.90;61.80;;;;;;5013077;28;20107;-74
2022/04/21 10:31:33;;;;;;;6.45;3.40;;;16.10;66.10;;;;;;5032009;28;20040;-74
2022/04/21 10:34:06;;;;;;;10.00;3.95;;;15.30;63.70;;;;;;4997820;28;20052;-74
2022/04/21 10:36:47;;;;;;;6.57;3.90;;;15.00;63.90;;;;;;5020209;28;20051;-73
2022/04/21 10:39:24;;;;;;;6.75;2.95;;;15.20;65.60;;;;;;5010551;28;20576;-74
2022/04/21 10:42:15;;;;;;;9.38;3.22;;;15.90;64.60;;;;;;5029206;28;20071;-73
2022/04/21 10:44:46;;;;;;;7.35;3.33;;;16.30;67.80;;;;;;5014453;28;20486;-74
2022/04/21 10:47:35;;;;;;;6.35;3.00;;;15.70;61.90;;;;;;5025933;28;20971;-73
2022/04/21 10:50:11;;;;;;;8.63;3.78;;;15.80;60.90;;;;;;5030593;28;20514;-73
2022/04/21 10:57:55;;;;;;;;;;;16.00;64.80;;;;;;5016027;28;20068;-74
2022/04/21 11:00:31;;;;;;;9.65;3.53;;;16.30;64.90;;;;;;5028882;28;19974;-73
2022/04/21 11:03:26;;;;;;;7.32;3.00;;;16.50;64.10;;;;;;5025039;28;20128;-73
2022/04/21 11:06:03;;;;;;;;;;;16.60;64.40;;;;;;5009264;28;20495;-73
2022/04/21 11:08:31;;;;;;;7.18;2.97;;;16.90;61.80;;;;;;5028305;28;19924;-73
2022/04/21 11:10:57;;;;;;;5.43;2.90;;;16.40;57.90;;;;;;5024062;28;20045;-73
2022/04/21 11:13:49;;;;;;;7.90;3.45;;;16.80;59.30;;;;;;5031194;28;20033;-73
2022/04/21 11:16:47;;;;;;;6.45;3.42;;;16.60;60.50;;;;;;5024618;28;20049;-74
2022/04/21 11:19:28;;;;;;;8.98;3.92;;;16.50;62.20;;;;;;5031208;28;20056;-74
2022/04/21 11:21:57;;;;;;;7.75;3.58;;;16.90;64.00;;;;;;5028839;28;20190;-74
2022/04/21 11:24:25;;;;;;;6.30;3.80;;;17.30;61.50;;;;;;5027598;28;20516;-73
2022/04/21 11:26:59;;;;;;;9.60;4.47;;;17.10;64.30;;;;;;5003828;28;20060;-74
2022/04/21 11:29:26;;;;;;;7.03;3.90;;;17.70;60.90;;;;;;4995343;28;20045;-74
2022/04/21 11:31:57;;;;;;;7.13;3.97;;;17.70;60.90;;;;;;5014274;28;20589;-74
2022/04/21 11:34:24;;;;;;;6.90;3.90;;;17.10;60.10;;;;;;5011841;28;20204;-74
2022/04/21 11:36:56;;;;;;;7.00;3.80;;;17.00;66.30;;;;;;5010892;28;20041;-75
2022/04/21 11:39:22;;;;;;;7.15;3.78;;;17.40;67.10;;;;;;4996952;28;20052;-75
2022/04/21 11:41:52;;;;;;;8.05;4.13;;;16.70;60.50;;;;;;4998666;28;20416;-74
2022/04/21 11:44:28;;;;;;;10.98;4.45;;;17.30;62.20;;;;;;5019544;28;20044;-74
2022/04/21 11:46:54;;;;;;;7.07;4.30;;;17.30;70.00;;;;;;5032371;28;20045;-74
2022/04/21 11:49:20;;;;;;;6.18;4.10;;;18.10;68.20;;;;;;5023114;28;20041;-74
2022/04/21 11:51:52;;;;;;;7.57;4.30;;;17.60;65.00;;;;;;5008549;28;20103;-74
2022/04/21 11:54:18;;;;;;;8.55;3.88;;;18.20;65.80;;;;;;4997840;28;20132;-74
2022/04/21 11:56:50;;;;;;;9.73;4.57;;;18.10;62.70;;;;;;4998301;28;20052;-75
2022/04/21 11:59:16;;;;;;;13.05;4.38;;;17.40;65.10;;;;;;5014304;28;20044;-74
2022/04/21 12:07:19;;;;;;;11.50;4.57;;;17.20;64.10;;;;;;5018695;28;20045;-74
2022/04/21 12:09:50;;;;;;;6.55;3.50;;;17.30;63.80;;;;;;4993627;28;21039;-74
2022/04/21 12:12:20;;;;;;;8.85;3.80;;;17.00;62.30;;;;;;5001131;28;20049;-74
2022/04/21 12:14:46;;;;;;;7.00;4.00;;;16.70;66.00;;;;;;5018377;28;20287;-74
2022/04/21 12:17:12;;;;;;;6.70;3.60;;;16.20;62.70;;;;;;5014178;28;20408;-74
2022/04/21 12:19:44;;;;;;;7.93;4.10;;;16.30;64.10;;;;;;4985497;28;20115;-74
2022/04/21 12:22:16;;;;;;;8.35;3.75;;;16.30;63.00;;;;;;5013809;28;20041;-74
2022/04/21 12:24:45;;;;;;;10.05;3.85;;;16.50;62.00;;;;;;4998977;28;20109;-74
2022/04/21 12:27:22;;;;;;;6.57;3.40;;;17.00;63.20;;;;;;4998182;28;20048;-73
2022/04/21 12:29:57;;;;;;;6.85;3.65;;;17.40;59.90;;;;;;5018719;28;20057;-73
2022/04/21 12:32:27;;;;;;;6.43;3.63;;;17.90;59.00;;;;;;5016665;28;20052;-75
2022/04/21 12:34:58;;;;;;;7.05;3.80;;;18.00;63.30;;;;;;5016108;28;20040;-74
2022/04/21 12:37:50;;;;;;;7.80;3.67;;;17.40;62.10;;;;;;5017037;28;20136;-74
2022/04/21 12:40:16;;;;;;;6.90;3.65;;;17.60;60.40;;;;;;5001447;28;20041;-74
2022/04/21 12:42:43;;;;;;;9.25;3.60;;;17.60;63.70;;;;;;5014459;28;20480;-75
2022/04/21 12:45:11;;;;;;;15.95;4.30;;;18.00;61.10;;;;;;4998033;28;20041;-75
2022/04/21 12:47:43;;;;;;;8.48;3.35;;;18.20;59.10;;;;;;5018757;28;20627;-75
2022/04/21 12:50:16;;;;;;;9.55;3.63;;;18.20;56.70;;;;;;5018937;28;20116;-75
2022/04/21 12:52:46;;;;;;;6.60;3.30;;;17.80;57.00;;;;;;5002554;28;20776;-74
2022/04/21 12:55:21;;;;;;;9.00;3.70;;;17.70;60.60;;;;;;5021160;28;20060;-74
2022/04/21 12:58:11;;;;;;;8.95;3.97;;;17.90;59.80;;;;;;4998998;28;20055;-75
2022/04/21 13:00:41;;;;;;;8.98;3.92;;;18.20;62.20;;;;;;4978240;28;20063;-74
2022/04/21 13:03:10;;;;;;;6.85;3.90;;;18.30;62.50;;;;;;5007957;28;20114;-74
2022/04/21 13:05:52;;;;;;;6.95;3.88;;;17.80;58.70;;;;;;5013518;28;20049;-75
2022/04/21 13:08:23;;;;;;;7.25;3.47;;;17.40;60.10;;;;;;5009980;28;20566;-74
2022/04/21 13:10:50;;;;;;;8.48;3.45;;;17.80;63.00;;;;;;5014160;28;20048;-74
2022/04/21 13:13:16;;;;;;;5.65;3.33;;;18.00;57.70;;;;;;4998751;28;20125;-74
2022/04/21 13:15:42;;;;;;;12.32;3.75;;;18.50;59.50;;;;;;5020912;28;20470;-75
2022/04/21 13:18:08;;;;;;;6.53;3.80;;;18.60;61.80;;;;;;5018370;28;20959;-75
2022/04/21 13:23:45;;;;;;;11.90;4.40;;;17.70;62.90;;;;;;5029949;28;20059;-75
2022/04/21 13:26:11;;;;;;;8.75;3.83;;;17.70;60.00;;;;;;5010454;28;20113;-74
2022/04/21 13:28:37;;;;;;;6.75;3.78;;;18.20;64.20;;;;;;5017844;28;20045;-75
2022/04/21 13:33:47;;;;;;;8.13;3.45;;;18.00;60.20;;;;;;5029096;28;20119;-75
2022/04/21 13:36:13;;;;;;;8.15;3.50;;;17.70;60.30;;;;;;5030201;28;20263;-74
2022/04/21 13:38:39;;;;;;;9.20;3.63;;;17.60;64.10;;;;;;5031369;28;20048;-75
2022/04/21 13:41:05;;;;;;;7.78;3.58;;;17.70;64.80;;;;;;5011684;28;20052;-74
2022/04/21 13:43:31;;;;;;;8.85;3.72;;;18.10;62.00;;;;;;5035305;28;20075;-75
2022/04/21 13:45:57;;;;;;;7.47;3.80;;;18.00;65.00;;;;;;5025678;28;20897;-75
2022/04/21 13:48:24;;;;;;;10.45;3.40;;;18.00;62.20;;;;;;5031305;28;20053;-75
2022/04/21 13:50:50;;;;;;;8.55;3.75;;;17.60;61.00;;;;;;5026373;28;20135;-75
2022/04/21 13:53:17;;;;;;;6.75;3.75;;;18.00;64.40;;;;;;5025417;28;20086;-74